Brookport, Illinois
Current Conditions -  °F | °C
As of 11:55 AM on Friday 24 Oct 2014 (Local Time) from KM30 Reporting Station
Scattered Clouds Scattered Clouds  
Wind Chill: 64°   Ceiling: Unl
Heat Index: 64°   Visibility: 10mi
Dew Point: 53°   Wind: 0mph
Humidity: 67%   Direction: NA
Pressure: 30.12"   Gusts: NA
Location:  37.12°N, 88.63°W
Report Text: KM30 241655Z AUTO 00000KT 10SM SCT021 18/12 A3012 RMK AO2 T01800118
Loading
Personal Weather Stations






























Interactive Weather Map
Tropical Storm Tracking
New forecast layout! Learn more

10-Day Weather Forecast

Advertisements
Track Severe Weather on mobile